sensor_id;sensor_type;location;lat;lon;timestamp;temperature;humidity
59703;DHT22;45570;48.782;8.332;2022-10-31T08:24:07;15.20;99.90
59703;DHT22;45570;48.782;8.332;2022-10-31T08:26:37;15.40;99.90
59703;DHT22;45570;48.782;8.332;2022-10-31T08:29:09;15.60;99.90
59703;DHT22;45570;48.782;8.332;2022-10-31T08:31:39;15.90;99.90
59703;DHT22;45570;48.782;8.332;2022-10-31T08:34:27;16.10;99.90
59703;DHT22;45570;48.782;8.332;2022-10-31T08:37:14;16.30;99.90
59703;DHT22;45570;48.782;8.332;2022-10-31T08:39:53;16.50;99.90
59703;DHT22;45570;48.782;8.332;2022-10-31T08:42:22;16.70;99.90
59703;DHT22;45570;48.782;8.332;2022-10-31T08:44:51;16.80;99.90
59703;DHT22;45570;48.782;8.332;2022-10-31T08:47:22;16.90;99.90
59703;DHT22;45570;48.782;8.332;2022-10-31T08:49:50;17.00;99.90
59703;DHT22;45570;48.782;8.332;2022-10-31T08:52:23;16.90;99.90
59703;DHT22;45570;48.782;8.332;2022-10-31T08:55:14;17.10;99.90
59703;DHT22;45570;48.782;8.332;2022-10-31T08:58:02;17.30;99.90
59703;DHT22;45570;48.782;8.332;2022-10-31T09:00:39;17.50;99.90
59703;DHT22;45570;48.782;8.332;2022-10-31T09:03:19;17.60;99.90
59703;DHT22;45570;48.782;8.332;2022-10-31T09:05:48;17.70;99.90
59703;DHT22;45570;48.782;8.332;2022-10-31T09:08:17;17.60;99.90
59703;DHT22;45570;48.782;8.332;2022-10-31T09:10:48;17.60;99.90
59703;DHT22;45570;48.782;8.332;2022-10-31T09:13:30;17.80;99.90
59703;DHT22;45570;48.782;8.332;2022-10-31T09:16:20;17.80;99.90
59703;DHT22;45570;48.782;8.332;2022-10-31T09:18:49;17.90;99.90
59703;DHT22;45570;48.782;8.332;2022-10-31T09:21:18;17.80;99.90
59703;DHT22;45570;48.782;8.332;2022-10-31T09:23:47;17.80;99.90
59703;DHT22;45570;48.782;8.332;2022-10-31T09:26:17;17.60;99.90
59703;DHT22;45570;48.782;8.332;2022-10-31T09:28:55;17.40;99.90
59703;DHT22;45570;48.782;8.332;2022-10-31T09:31:26;17.50;99.90
59703;DHT22;45570;48.782;8.332;2022-10-31T09:34:03;17.50;99.90
59703;DHT22;45570;48.782;8.332;2022-10-31T09:36:35;17.20;99.90
59703;DHT22;45570;48.782;8.332;2022-10-31T09:39:06;17.30;99.90
59703;DHT22;45570;48.782;8.332;2022-10-31T09:41:54;17.30;99.90
59703;DHT22;45570;48.782;8.332;2022-10-31T09:44:33;17.40;99.90
59703;DHT22;45570;48.782;8.332;2022-10-31T09:47:10;17.60;99.90
59703;DHT22;45570;48.782;8.332;2022-10-31T09:50:05;17.60;99.90
59703;DHT22;45570;48.782;8.332;2022-10-31T09:52:39;17.60;99.90
59703;DHT22;45570;48.782;8.332;2022-10-31T09:55:21;17.40;99.90
59703;DHT22;45570;48.782;8.332;2022-10-31T09:57:53;17.30;99.90
59703;DHT22;45570;48.782;8.332;2022-10-31T10:00:22;17.30;99.90
59703;DHT22;45570;48.782;8.332;2022-10-31T10:02:55;17.20;99.90
59703;DHT22;45570;48.782;8.332;2022-10-31T10:05:32;17.20;99.90
59703;DHT22;45570;48.782;8.332;2022-10-31T10:08:10;17.10;99.90
59703;DHT22;45570;48.782;8.332;2022-10-31T10:11:17;17.10;99.90
59703;DHT22;45570;48.782;8.332;2022-10-31T10:14:04;17.00;99.90
59703;DHT22;45570;48.782;8.332;2022-10-31T10:16:55;17.00;99.90
59703;DHT22;45570;48.782;8.332;2022-10-31T10:19:43;17.00;99.90
59703;DHT22;45570;48.782;8.332;2022-10-31T10:22:22;17.00;99.90
59703;DHT22;45570;48.782;8.332;2022-10-31T10:25:01;17.20;99.90
59703;DHT22;45570;48.782;8.332;2022-10-31T10:27:42;17.20;99.90
59703;DHT22;45570;48.782;8.332;2022-10-31T10:30:19;17.30;99.90
59703;DHT22;45570;48.782;8.332;2022-10-31T10:32:51;17.50;99.90
59703;DHT22;45570;48.782;8.332;2022-10-31T10:35:24;17.40;99.90
59703;DHT22;45570;48.782;8.332;2022-10-31T10:37:58;17.40;99.90
59703;DHT22;45570;48.782;8.332;2022-10-31T10:40:29;17.50;99.90
59703;DHT22;45570;48.782;8.332;2022-10-31T10:43:09;17.40;99.90
59703;DHT22;45570;48.782;8.332;2022-10-31T10:49:21;17.60;99.90
59703;DHT22;45570;48.782;8.332;2022-10-31T10:51:57;17.60;99.90
59703;DHT22;45570;48.782;8.332;2022-10-31T10:54:59;17.40;99.90
59703;DHT22;45570;48.782;8.332;2022-10-31T10:57:52;17.30;99.90
59703;DHT22;45570;48.782;8.332;2022-10-31T11:00:24;17.30;99.90
59703;DHT22;45570;48.782;8.332;2022-10-31T11:02:55;17.40;99.90
59703;DHT22;45570;48.782;8.332;2022-10-31T11:05:28;17.40;99.90
59703;DHT22;45570;48.782;8.332;2022-10-31T11:07:58;17.30;99.90
59703;DHT22;45570;48.782;8.332;2022-10-31T11:10:27;17.20;99.90
59703;DHT22;45570;48.782;8.332;2022-10-31T11:13:06;17.30;99.90
59703;DHT22;45570;48.782;8.332;2022-10-31T11:15:37;17.30;99.90
59703;DHT22;45570;48.782;8.332;2022-10-31T11:18:20;17.20;99.90
59703;DHT22;45570;48.782;8.332;2022-10-31T11:20:53;17.20;99.90
59703;DHT22;45570;48.782;8.332;2022-10-31T11:23:23;17.30;99.90
59703;DHT22;45570;48.782;8.332;2022-10-31T11:25:55;17.40;99.90
59703;DHT22;45570;48.782;8.332;2022-10-31T11:28:25;17.50;99.90
59703;DHT22;45570;48.782;8.332;2022-10-31T11:30:58;17.50;99.90
59703;DHT22;45570;48.782;8.332;2022-10-31T11:33:31;17.40;99.90
59703;DHT22;45570;48.782;8.332;2022-10-31T11:36:01;17.70;99.90
59703;DHT22;45570;48.782;8.332;2022-10-31T11:38:34;17.80;99.90
59703;DHT22;45570;48.782;8.332;2022-10-31T11:41:11;17.80;99.90
59703;DHT22;45570;48.782;8.332;2022-10-31T11:43:46;17.80;99.90
59703;DHT22;45570;48.782;8.332;2022-10-31T11:46:19;17.70;99.90
59703;DHT22;45570;48.782;8.332;2022-10-31T11:48:53;18.00;99.90
59703;DHT22;45570;48.782;8.332;2022-10-31T11:51:24;18.00;99.90
59703;DHT22;45570;48.782;8.332;2022-10-31T11:53:55;18.10;99.90
59703;DHT22;45570;48.782;8.332;2022-10-31T11:56:38;18.10;99.90
59703;DHT22;45570;48.782;8.332;2022-10-31T11:59:18;18.00;99.90
59703;DHT22;45570;48.782;8.332;2022-10-31T12:01:51;17.90;99.90
59703;DHT22;45570;48.782;8.332;2022-10-31T12:04:28;17.80;99.90
59703;DHT22;45570;48.782;8.332;2022-10-31T12:06:59;17.80;99.90
59703;DHT22;45570;48.782;8.332;2022-10-31T12:09:28;17.50;99.90
59703;DHT22;45570;48.782;8.332;2022-10-31T12:12:09;17.40;99.90
59703;DHT22;45570;48.782;8.332;2022-10-31T12:14:46;17.50;99.90
59703;DHT22;45570;48.782;8.332;2022-10-31T12:17:18;17.40;99.90
59703;DHT22;45570;48.782;8.332;2022-10-31T12:20:00;17.20;99.90
59703;DHT22;45570;48.782;8.332;2022-10-31T12:22:39;17.20;99.90
59703;DHT22;45570;48.782;8.332;2022-10-31T12:25:26;17.00;99.90
59703;DHT22;45570;48.782;8.332;2022-10-31T12:28:04;17.00;99.90
59703;DHT22;45570;48.782;8.332;2022-10-31T12:30:47;16.90;99.90
59703;DHT22;45570;48.782;8.332;2022-10-31T12:33:37;17.00;99.90
59703;DHT22;45570;48.782;8.332;2022-10-31T12:36:19;16.90;99.90
59703;DHT22;45570;48.782;8.332;2022-10-31T12:38:59;17.00;99.90
59703;DHT22;45570;48.782;8.332;2022-10-31T12:41:41;17.00;99.90
59703;DHT22;45570;48.782;8.332;2022-10-31T12:44:22;17.30;99.90
59703;DHT22;45570;48.782;8.332;2022-10-31T12:47:07;18.40;99.90
59703;DHT22;45570;48.782;8.332;2022-10-31T12:49:41;19.90;99.90
59703;DHT22;45570;48.782;8.332;2022-10-31T12:52:23;20.50;99.90
59703;DHT22;45570;48.782;8.332;2022-10-31T12:55:04;21.00;99.90
59703;DHT22;45570;48.782;8.332;2022-10-31T12:57:37;21.10;99.90
59703;DHT22;45570;48.782;8.332;2022-10-31T13:00:12;20.70;99.90
59703;DHT22;45570;48.782;8.332;2022-10-31T13:02:48;20.20;99.90
59703;DHT22;45570;48.782;8.332;2022-10-31T13:05:22;19.90;99.90
59703;DHT22;45570;48.782;8.332;2022-10-31T13:07:57;19.70;99.90
59703;DHT22;45570;48.782;8.332;2022-10-31T13:10:32;19.50;99.90
59703;DHT22;45570;48.782;8.332;2022-10-31T13:13:07;19.30;99.90
59703;DHT22;45570;48.782;8.332;2022-10-31T13:15:47;19.30;99.90
59703;DHT22;45570;48.782;8.332;2022-10-31T13:18:24;19.50;99.90
59703;DHT22;45570;48.782;8.332;2022-10-31T13:20:55;19.90;99.90
59703;DHT22;45570;48.782;8.332;2022-10-31T13:23:30;20.20;99.90
59703;DHT22;45570;48.782;8.332;2022-10-31T13:26:23;20.20;99.90
59703;DHT22;45570;48.782;8.332;2022-10-31T13:29:02;20.20;99.90
59703;DHT22;45570;48.782;8.332;2022-10-31T13:31:33;20.30;99.90
59703;DHT22;45570;48.782;8.332;2022-10-31T13:34:08;20.30;99.90
59703;DHT22;45570;48.782;8.332;2022-10-31T13:36:38;20.20;99.90
59703;DHT22;45570;48.782;8.332;2022-10-31T13:39:19;20.20;99.90
59703;DHT22;45570;48.782;8.332;2022-10-31T13:41:54;20.30;99.90
59703;DHT22;45570;48.782;8.332;2022-10-31T13:44:27;20.40;99.90
59703;DHT22;45570;48.782;8.332;2022-10-31T13:47:21;20.20;99.90
59703;DHT22;45570;48.782;8.332;2022-10-31T13:49:50;19.90;99.90
59703;DHT22;45570;48.782;8.332;2022-10-31T13:52:24;19.30;99.90
59703;DHT22;45570;48.782;8.332;2022-10-31T13:54:54;18.90;99.90
59703;DHT22;45570;48.782;8.332;2022-10-31T13:57:31;18.90;99.90
59703;DHT22;45570;48.782;8.332;2022-10-31T14:00:03;18.80;99.90
59703;DHT22;45570;48.782;8.332;2022-10-31T14:02:45;18.50;99.90
59703;DHT22;45570;48.782;8.332;2022-10-31T14:05:22;18.30;99.90
59703;DHT22;45570;48.782;8.332;2022-10-31T14:07:52;18.40;99.90
59703;DHT22;45570;48.782;8.332;2022-10-31T14:10:29;18.40;99.90
59703;DHT22;45570;48.782;8.332;2022-10-31T14:13:14;18.20;99.90
59703;DHT22;45570;48.782;8.332;2022-10-31T14:15:53;18.00;99.90
59703;DHT22;45570;48.782;8.332;2022-10-31T14:18:25;17.90;99.90
59703;DHT22;45570;48.782;8.332;2022-10-31T14:20:57;18.20;99.90
59703;DHT22;45570;48.782;8.332;2022-10-31T14:23:43;18.30;99.90
59703;DHT22;45570;48.782;8.332;2022-10-31T14:26:29;18.30;99.90
59703;DHT22;45570;48.782;8.332;2022-10-31T14:29:00;18.10;99.90
59703;DHT22;45570;48.782;8.332;2022-10-31T14:31:35;17.80;99.90
59703;DHT22;45570;48.782;8.332;2022-10-31T14:34:18;17.80;99.90
59703;DHT22;45570;48.782;8.332;2022-10-31T14:37:08;17.70;99.90
59703;DHT22;45570;48.782;8.332;2022-10-31T14:39:49;17.60;99.90
59703;DHT22;45570;48.782;8.332;2022-10-31T14:42:32;17.50;99.90
59703;DHT22;45570;48.782;8.332;2022-10-31T14:45:16;17.40;99.90
59703;DHT22;45570;48.782;8.332;2022-10-31T14:47:56;17.40;99.90
59703;DHT22;45570;48.782;8.332;2022-10-31T14:50:42;17.40;99.90
59703;DHT22;45570;48.782;8.332;2022-10-31T14:53:19;17.40;99.90
59703;DHT22;45570;48.782;8.332;2022-10-31T14:55:51;17.30;99.90
59703;DHT22;45570;48.782;8.332;2022-10-31T14:58:24;17.20;99.90
59703;DHT22;45570;48.782;8.332;2022-10-31T15:00:57;17.00;99.90
59703;DHT22;45570;48.782;8.332;2022-10-31T15:03:31;17.00;99.90
59703;DHT22;45570;48.782;8.332;2022-10-31T15:06:01;16.90;99.90
